createdAt,value
2019-04-05T00:01:01.272Z,8.20
2019-04-05T00:03:48.728Z,7.90
2019-04-05T00:06:36.557Z,8.13
2019-04-05T00:09:24.061Z,7.73
2019-04-05T00:12:11.341Z,8.13
2019-04-05T00:14:58.901Z,8.37
2019-04-05T00:17:46.049Z,9.00
2019-04-05T00:20:34.158Z,8.90
2019-04-05T00:23:21.485Z,8.37
2019-04-05T00:26:09.360Z,8.77
2019-04-05T00:28:57.043Z,11.83
2019-04-05T00:31:44.279Z,8.67
2019-04-05T00:34:31.439Z,7.83
2019-04-05T00:37:18.864Z,8.23
2019-04-05T00:40:07.804Z,8.17
2019-04-05T00:42:55.407Z,8.27
2019-04-05T00:45:43.587Z,7.43
2019-04-05T00:48:31.201Z,8.20
2019-04-05T00:51:18.750Z,7.70
2019-04-05T00:54:06.481Z,10.50
2019-04-05T00:56:54.190Z,8.43
2019-04-05T00:59:42.321Z,8.60
2019-04-05T01:02:29.796Z,8.33
2019-04-05T01:05:17.257Z,8.80
2019-04-05T01:08:04.969Z,8.20
2019-04-05T01:10:52.155Z,7.90
2019-04-05T01:13:40.414Z,8.00
2019-04-05T01:16:28.126Z,7.77
2019-04-05T01:19:16.409Z,8.40
2019-04-05T01:22:07.836Z,7.97
2019-04-05T01:24:55.304Z,8.40
2019-04-05T01:27:42.756Z,8.30
2019-04-05T01:30:30.757Z,8.37
2019-04-05T01:33:18.468Z,8.20
2019-04-05T01:36:06.292Z,7.93
2019-04-05T01:38:53.688Z,7.73
2019-04-05T01:41:41.656Z,8.37
2019-04-05T01:44:29.773Z,8.20
2019-04-05T01:47:17.312Z,7.20
2019-04-05T01:50:05.717Z,8.13
2019-04-05T01:52:53.556Z,7.27
2019-04-05T01:55:40.843Z,7.43
2019-04-05T01:58:28.070Z,7.33
2019-04-05T02:01:15.473Z,6.83
2019-04-05T02:04:03.371Z,7.10
2019-04-05T02:06:51.096Z,7.30
2019-04-05T02:09:39.736Z,6.43
2019-04-05T02:12:27.366Z,6.93
2019-04-05T02:15:28.681Z,7.10
2019-04-05T02:18:16.148Z,6.90
2019-04-05T02:21:03.411Z,6.73
2019-04-05T02:23:51.192Z,6.87
2019-04-05T02:26:38.661Z,6.47
2019-04-05T02:29:26.350Z,6.90
2019-04-05T02:32:14.153Z,7.63
2019-04-05T02:35:02.025Z,6.43
2019-04-05T02:37:49.605Z,6.57
2019-04-05T02:40:40.002Z,7.23
2019-04-05T02:43:30.678Z,7.47
2019-04-05T02:46:23.759Z,7.13
2019-04-05T02:49:08.991Z,7.50
2019-04-05T02:51:58.206Z,6.97
2019-04-05T02:54:46.922Z,7.90
2019-04-05T02:57:35.033Z,7.67
2019-04-05T03:00:22.706Z,8.10
2019-04-05T03:03:11.393Z,7.57
2019-04-05T03:05:59.283Z,7.67
2019-04-05T03:08:47.151Z,8.07
2019-04-05T03:11:36.104Z,7.40
2019-04-05T03:14:23.900Z,7.80
2019-04-05T03:17:12.572Z,8.17
2019-04-05T03:20:02.818Z,8.70
2019-04-05T03:22:50.416Z,8.23
2019-04-05T03:25:38.651Z,8.43
2019-04-05T03:28:26.617Z,8.47
2019-04-05T03:31:14.920Z,8.90
2019-04-05T03:34:02.856Z,8.63
2019-04-05T03:36:51.806Z,8.73
2019-04-05T03:39:40.173Z,8.97
2019-04-05T03:42:28.125Z,8.90
2019-04-05T03:45:15.477Z,9.27
2019-04-05T03:48:03.113Z,9.43
2019-04-05T03:50:50.844Z,8.80
2019-04-05T03:53:39.025Z,8.50
2019-04-05T03:56:26.578Z,8.47
2019-04-05T03:59:14.400Z,8.33
2019-04-05T04:02:02.410Z,8.67
2019-04-05T04:04:50.741Z,11.13
2019-04-05T04:07:38.413Z,9.27
2019-04-05T04:10:27.872Z,10.10
2019-04-05T04:13:15.912Z,9.23
2019-04-05T04:16:04.889Z,10.13
2019-04-05T04:18:52.693Z,10.17
2019-04-05T04:21:52.883Z,8.07
2019-04-05T04:24:40.972Z,9.57
2019-04-05T04:27:29.784Z,9.23
2019-04-05T04:30:18.190Z,9.73
2019-04-05T04:33:06.741Z,9.07
2019-04-05T04:35:54.871Z,9.70
2019-04-05T04:38:43.489Z,11.33
2019-04-05T04:41:32.124Z,8.73
2019-04-05T04:44:20.340Z,9.07
2019-04-05T04:47:08.172Z,10.10
2019-04-05T04:49:57.615Z,10.43
2019-04-05T04:52:45.564Z,10.07
2019-04-05T04:55:34.281Z,9.33
2019-04-05T04:58:22.178Z,9.50
2019-04-05T05:01:10.736Z,9.67
2019-04-05T05:03:58.099Z,9.60
2019-04-05T05:06:46.139Z,9.30
2019-04-05T05:09:34.333Z,9.03
2019-04-05T05:12:22.515Z,9.43
2019-04-05T05:15:10.420Z,9.33
2019-04-05T05:17:59.104Z,9.03
2019-04-05T05:20:47.321Z,9.77
2019-04-05T05:23:35.260Z,10.37
2019-04-05T05:26:23.641Z,9.90
2019-04-05T05:29:11.657Z,9.63
2019-04-05T05:31:58.987Z,9.77
2019-04-05T05:34:46.879Z,9.73
2019-04-05T05:37:34.816Z,8.83
2019-04-05T05:40:34.022Z,9.17
2019-04-05T05:43:11.737Z,9.03
2019-04-05T05:45:59.049Z,11.77
2019-04-05T05:48:47.095Z,10.53
2019-04-05T05:51:34.609Z,9.57
2019-04-05T05:54:22.356Z,9.77
2019-04-05T05:57:10.181Z,9.10
2019-04-05T05:59:58.502Z,9.43
2019-04-05T06:02:48.544Z,9.70
2019-04-05T06:05:36.224Z,10.67
2019-04-05T06:08:23.736Z,10.57
2019-04-05T06:11:11.372Z,13.07
2019-04-05T06:13:59.048Z,9.23
2019-04-05T06:16:46.932Z,9.50
2019-04-05T06:19:34.932Z,9.60
2019-04-05T06:22:22.960Z,8.70
2019-04-05T06:25:10.769Z,9.50
2019-04-05T06:27:59.915Z,11.33
2019-04-05T06:30:47.884Z,14.93
2019-04-05T06:33:36.043Z,9.30
2019-04-05T06:36:23.832Z,9.27
2019-04-05T06:39:11.335Z,9.80
2019-04-05T06:41:58.844Z,9.97
2019-04-05T06:44:46.868Z,9.77
2019-04-05T06:47:34.929Z,10.43
2019-04-05T06:50:22.794Z,9.80
2019-04-05T06:53:11.451Z,9.07
2019-04-05T06:55:59.979Z,9.30
2019-04-05T06:58:47.843Z,10.73
2019-04-05T07:01:35.335Z,10.37
2019-04-05T07:04:22.560Z,12.97
2019-04-05T07:07:10.728Z,12.27
2019-04-05T07:09:58.151Z,14.77
2019-04-05T07:12:46.079Z,15.53
2019-04-05T07:15:33.800Z,13.73
2019-04-05T07:18:32.495Z,17.13
2019-04-05T07:21:10.797Z,20.03
2019-04-05T07:23:58.568Z,15.90
2019-04-05T07:26:46.196Z,15.43
2019-04-05T07:29:34.397Z,15.43
2019-04-05T07:32:21.896Z,13.30
2019-04-05T07:35:09.760Z,14.90
2019-04-05T07:37:57.508Z,13.77
2019-04-05T07:40:45.107Z,14.30
2019-04-05T07:43:32.288Z,17.27
2019-04-05T07:46:20.056Z,15.33
2019-04-05T07:49:08.274Z,14.87
2019-04-05T07:51:55.824Z,13.50
2019-04-05T07:54:43.746Z,14.50
2019-04-05T07:57:31.738Z,14.87
2019-04-05T08:00:57.229Z,15.37
2019-04-05T08:03:44.722Z,19.67
2019-04-05T08:06:34.380Z,18.17
2019-04-05T08:09:23.548Z,18.60
2019-04-05T08:12:11.699Z,17.87
2019-04-05T08:14:59.528Z,17.00
2019-04-05T08:17:47.368Z,17.27
2019-04-05T08:20:35.584Z,18.93
2019-04-05T08:23:24.365Z,18.53
2019-04-05T08:26:12.073Z,19.60
2019-04-05T08:28:59.572Z,20.13
2019-04-05T08:31:47.375Z,22.93
2019-04-05T08:34:34.812Z,21.03
2019-04-05T08:37:22.623Z,19.00
2019-04-05T08:40:11.230Z,23.00
2019-04-05T08:42:59.047Z,21.73
2019-04-05T08:45:46.971Z,20.77
2019-04-05T08:48:35.130Z,20.57
2019-04-05T08:51:22.912Z,21.40
2019-04-05T08:54:10.842Z,21.13
2019-04-05T08:56:58.408Z,19.57
2019-04-05T08:59:46.637Z,20.33
2019-04-05T09:02:34.326Z,20.80
2019-04-05T09:05:21.848Z,22.03
2019-04-05T09:08:09.600Z,22.17
2019-04-05T09:10:57.370Z,20.47
2019-04-05T09:13:45.315Z,21.03
2019-04-05T09:16:32.865Z,21.70
2019-04-05T09:19:23.929Z,22.87
2019-04-05T09:22:10.226Z,21.13
2019-04-05T09:24:58.096Z,19.70
2019-04-05T09:27:46.224Z,20.43
2019-04-05T09:30:33.857Z,18.57
2019-04-05T09:33:21.061Z,18.40
2019-04-05T09:36:08.721Z,17.80
2019-04-05T09:38:56.068Z,18.10
2019-04-05T09:41:43.641Z,16.13
2019-04-05T09:44:31.734Z,16.00
2019-04-05T09:47:19.946Z,15.93
2019-04-05T09:50:07.965Z,14.37
2019-04-05T09:52:55.480Z,15.37
2019-04-05T09:55:43.620Z,14.67
2019-04-05T09:58:31.136Z,14.37
2019-04-05T10:01:19.236Z,14.33
2019-04-05T10:04:07.541Z,15.13
2019-04-05T10:06:54.911Z,15.20
2019-04-05T10:09:42.571Z,17.07
2019-04-05T10:12:29.816Z,16.17
2019-04-05T10:15:17.648Z,17.13
2019-04-05T10:18:05.472Z,14.47
2019-04-05T10:20:53.404Z,13.00
2019-04-05T10:23:40.848Z,13.67
2019-04-05T10:26:28.669Z,13.43
2019-04-05T10:29:16.588Z,13.33
2019-04-05T10:32:04.179Z,13.70
2019-04-05T10:34:52.048Z,13.73
2019-04-05T10:37:39.587Z,13.27
2019-04-05T10:40:27.231Z,13.63
2019-04-05T10:43:15.300Z,13.73
2019-04-05T10:46:03.538Z,14.67
2019-04-05T10:48:51.052Z,14.80
2019-04-05T10:51:39.336Z,13.37
2019-04-05T10:54:27.135Z,14.70
2019-04-05T10:57:15.080Z,14.67
2019-04-05T11:00:03.184Z,14.93
2019-04-05T11:02:51.593Z,13.87
2019-04-05T11:05:39.433Z,15.67
2019-04-05T11:08:30.460Z,17.70
2019-04-05T11:11:18.166Z,15.10
2019-04-05T11:14:13.537Z,16.17
2019-04-05T11:16:58.568Z,13.90
2019-04-05T11:19:45.071Z,14.60
2019-04-05T11:22:32.551Z,17.27
2019-04-05T11:25:20.997Z,14.07
2019-04-05T11:28:09.060Z,14.63
2019-04-05T11:30:56.884Z,12.57
2019-04-05T11:33:44.944Z,12.33
2019-04-05T11:36:32.855Z,13.43
2019-04-05T11:39:21.375Z,13.23
2019-04-05T11:42:09.616Z,12.60
2019-04-05T11:44:58.455Z,13.47
2019-04-05T11:47:46.964Z,13.87
2019-04-05T11:50:35.187Z,12.07
2019-04-05T11:53:23.049Z,11.17
2019-04-05T11:56:15.058Z,11.60
2019-04-05T11:59:00.357Z,13.90
2019-04-05T12:01:56.112Z,13.00
2019-04-05T12:04:43.941Z,13.20
2019-04-05T12:07:31.394Z,13.77
2019-04-05T12:10:19.942Z,13.00
2019-04-05T12:13:07.540Z,11.27
2019-04-05T12:15:57.931Z,11.00
2019-04-05T12:18:44.412Z,11.70
2019-04-05T12:21:32.610Z,13.77
2019-04-05T12:24:21.531Z,12.80
2019-04-05T12:27:09.236Z,12.63
2019-04-05T12:29:57.011Z,13.97
2019-04-05T12:32:46.659Z,14.03
2019-04-05T12:35:37.589Z,13.23
2019-04-05T12:38:32.923Z,12.20
2019-04-05T12:41:20.880Z,13.50
2019-04-05T12:44:08.604Z,13.97
2019-04-05T12:46:55.793Z,13.47
2019-04-05T12:49:43.394Z,12.40
2019-04-05T12:52:32.569Z,12.53
2019-04-05T12:55:23.737Z,14.27
2019-04-05T12:58:10.115Z,12.97
2019-04-05T13:01:04.023Z,14.93
2019-04-05T13:03:51.848Z,13.03
2019-04-05T13:06:42.207Z,11.97
2019-04-05T13:09:29.219Z,13.47
2019-04-05T13:12:17.450Z,12.00
2019-04-05T13:15:12.910Z,15.17
2019-04-05T13:17:55.037Z,14.73
2019-04-05T13:20:42.511Z,12.73
2019-04-05T13:23:30.788Z,12.70
2019-04-05T13:26:18.798Z,12.23
2019-04-05T13:29:06.362Z,11.60
2019-04-05T13:31:53.860Z,12.83
2019-04-05T13:34:41.483Z,11.47
2019-04-05T13:37:30.779Z,11.43
2019-04-05T13:40:18.772Z,11.10
2019-04-05T13:43:06.744Z,11.80
2019-04-05T13:45:54.890Z,11.43
2019-04-05T13:48:42.917Z,13.33
2019-04-05T13:51:32.030Z,10.53
2019-04-05T13:54:19.832Z,14.20
2019-04-05T13:57:08.575Z,12.70
2019-04-05T13:59:57.536Z,11.93
2019-04-05T14:02:45.181Z,11.37
2019-04-05T14:05:33.497Z,10.97
2019-04-05T14:08:21.287Z,13.43
2019-04-05T14:11:10.480Z,12.00
2019-04-05T14:13:58.274Z,12.37
2019-04-05T14:16:46.040Z,11.37
2019-04-05T14:19:33.857Z,11.77
2019-04-05T14:22:22.539Z,11.27
2019-04-05T14:25:11.519Z,10.93
2019-04-05T14:27:59.197Z,11.10
2019-04-05T14:30:46.680Z,9.93
2019-04-05T14:33:34.520Z,11.60
2019-04-05T14:36:23.024Z,10.77
2019-04-05T14:39:11.118Z,11.00
2019-04-05T14:42:09.102Z,11.13
2019-04-05T14:44:49.013Z,10.80
2019-04-05T14:47:36.416Z,11.07
2019-04-05T14:50:24.339Z,11.20
2019-04-05T14:53:12.133Z,11.93
2019-04-05T14:56:00.135Z,12.00
2019-04-05T14:58:47.963Z,11.13
2019-04-05T15:01:35.729Z,11.93
2019-04-05T15:04:23.527Z,12.77
2019-04-05T15:07:11.092Z,10.80
2019-04-05T15:09:59.140Z,10.20
2019-04-05T15:12:47.072Z,10.07
2019-04-05T15:15:34.621Z,10.50
2019-04-05T15:18:24.422Z,11.27
2019-04-05T15:21:11.785Z,10.23
2019-04-05T15:23:59.788Z,10.17
2019-04-05T15:26:49.393Z,9.87
2019-04-05T15:29:36.839Z,10.83
2019-04-05T15:32:25.439Z,9.87
2019-04-05T15:35:14.568Z,11.23
2019-04-05T15:38:02.295Z,10.37
2019-04-05T15:40:49.833Z,13.37
2019-04-05T15:43:37.639Z,8.53
2019-04-05T15:46:25.680Z,10.50
2019-04-05T15:49:13.360Z,12.60
2019-04-05T15:52:01.391Z,9.77
2019-04-05T15:54:48.944Z,10.17
2019-04-05T15:57:39.327Z,10.17
2019-04-05T16:00:41.456Z,10.23
2019-04-05T16:03:31.971Z,13.30
2019-04-05T16:06:18.369Z,11.43
2019-04-05T16:09:09.067Z,10.87
2019-04-05T16:11:56.884Z,12.03
2019-04-05T16:14:44.265Z,10.60
2019-04-05T16:17:32.094Z,10.97
2019-04-05T16:20:19.996Z,10.00
2019-04-05T16:23:07.906Z,10.37
2019-04-05T16:25:55.570Z,9.70
2019-04-05T16:28:43.365Z,10.37
2019-04-05T16:31:31.129Z,11.97
2019-04-05T16:34:19.068Z,10.87
2019-04-05T16:37:07.420Z,13.43
2019-04-05T16:39:54.698Z,10.77
2019-04-05T16:42:42.760Z,11.23
2019-04-05T16:45:30.697Z,11.07
2019-04-05T16:48:18.160Z,11.63
2019-04-05T16:51:05.708Z,10.70
2019-04-05T16:54:03.496Z,11.10
2019-04-05T16:56:51.400Z,11.67
2019-04-05T16:59:39.108Z,11.47
2019-04-05T17:02:27.157Z,11.23
2019-04-05T17:05:15.176Z,11.63
2019-04-05T17:08:03.223Z,10.73
2019-04-05T17:10:51.036Z,10.43
2019-04-05T17:13:39.218Z,11.37
2019-04-05T17:16:27.064Z,14.93
2019-04-05T17:19:14.569Z,11.27
2019-04-05T17:22:02.079Z,11.17
2019-04-05T17:24:49.600Z,13.43
2019-04-05T17:27:37.256Z,11.87
2019-04-05T17:30:25.404Z,11.23
2019-04-05T17:33:13.064Z,12.63
2019-04-05T17:36:01.158Z,13.03
2019-04-05T17:38:49.121Z,10.67
2019-04-05T17:41:37.144Z,11.53
2019-04-05T17:44:24.601Z,12.03
2019-04-05T17:47:12.421Z,10.50
2019-04-05T17:50:02.019Z,10.73
2019-04-05T17:52:49.584Z,12.03
2019-04-05T17:55:37.397Z,11.50
2019-04-05T17:58:27.924Z,12.83
2019-04-05T18:01:15.428Z,14.07
2019-04-05T18:04:03.309Z,12.07
2019-04-05T18:06:51.095Z,12.60
2019-04-05T18:09:39.109Z,11.70
2019-04-05T18:12:26.631Z,13.20
2019-04-05T18:15:14.556Z,11.87
2019-04-05T18:18:02.188Z,10.83
2019-04-05T18:20:49.869Z,12.43
2019-04-05T18:23:37.861Z,11.37
2019-04-05T18:26:26.343Z,11.97
2019-04-05T18:29:14.195Z,12.40
2019-04-05T18:32:01.846Z,13.23
2019-04-05T18:34:49.034Z,13.83
2019-04-05T18:37:37.126Z,13.00
2019-04-05T18:40:25.010Z,13.73
2019-04-05T18:43:13.159Z,14.27
2019-04-05T18:46:00.599Z,11.63
2019-04-05T18:48:48.056Z,12.77
2019-04-05T18:51:35.737Z,13.87
2019-04-05T18:54:23.012Z,11.30
2019-04-05T18:57:10.671Z,12.60
2019-04-05T18:59:58.488Z,12.10
2019-04-05T19:02:46.208Z,13.27
2019-04-05T19:05:33.739Z,13.70
2019-04-05T19:08:20.965Z,14.33
2019-04-05T19:11:08.443Z,14.80
2019-04-05T19:14:01.329Z,13.87
2019-04-05T19:16:45.636Z,14.43
2019-04-05T19:19:33.431Z,15.80
2019-04-05T19:22:21.186Z,14.37
2019-04-05T19:25:09.264Z,15.50
2019-04-05T19:27:57.520Z,14.80
2019-04-05T19:50:30.288Z,14.80
2019-04-05T19:53:18.271Z,15.93
2019-04-05T19:56:05.840Z,16.17
2019-04-05T19:58:53.585Z,16.33
2019-04-05T20:01:41.091Z,16.50
2019-04-05T20:04:29.196Z,15.30
2019-04-05T20:07:17.001Z,16.73
2019-04-05T20:10:05.226Z,17.20
2019-04-05T20:12:52.973Z,15.13
2019-04-05T20:15:41.558Z,16.50
2019-04-05T20:18:29.267Z,15.77
2019-04-05T20:21:16.960Z,17.03
2019-04-05T20:24:13.806Z,15.93
2019-04-05T20:26:54.507Z,17.77
2019-04-05T20:29:42.455Z,15.67
2019-04-05T20:32:30.139Z,15.97
2019-04-05T20:35:17.772Z,18.10
2019-04-05T20:38:05.144Z,18.43
2019-04-05T20:40:52.387Z,16.23
2019-04-05T20:43:40.129Z,18.77
2019-04-05T20:46:28.084Z,16.13
2019-04-05T20:49:16.292Z,16.13
2019-04-05T20:52:04.667Z,16.13
2019-04-05T20:54:51.992Z,17.37
2019-04-05T20:57:39.507Z,15.13
2019-04-05T21:00:27.232Z,20.83
2019-04-05T21:03:14.672Z,19.03
2019-04-05T21:06:02.162Z,18.80
2019-04-05T21:08:49.324Z,19.17
2019-04-05T21:11:37.124Z,18.57
2019-04-05T21:14:24.582Z,19.03
2019-04-05T21:17:12.031Z,17.50
2019-04-05T21:19:59.425Z,17.80
2019-04-05T21:22:46.776Z,19.47
2019-04-05T21:25:34.404Z,21.50
2019-04-05T21:28:21.876Z,20.77
2019-04-05T21:31:08.981Z,19.57
2019-04-05T21:33:56.928Z,21.67
2019-04-05T21:36:44.588Z,21.17
2019-04-05T21:39:32.183Z,20.13
2019-04-05T21:42:19.894Z,22.20
2019-04-05T21:45:08.465Z,22.03
2019-04-05T21:47:55.968Z,24.13
2019-04-05T21:50:43.980Z,20.43
2019-04-05T21:53:31.960Z,20.57
2019-04-05T21:56:19.509Z,22.40
2019-04-05T21:59:07.240Z,24.07
2019-04-05T22:01:55.257Z,22.47
2019-04-05T22:04:43.211Z,23.23
2019-04-05T22:07:30.945Z,21.60
2019-04-05T22:10:18.227Z,19.67
2019-04-05T22:13:05.949Z,21.30
2019-04-05T22:15:53.235Z,19.37
2019-04-05T22:18:41.308Z,19.40
2019-04-05T22:21:28.873Z,21.27
2019-04-05T22:24:16.122Z,21.27
2019-04-05T22:27:03.715Z,21.83
2019-04-05T22:29:51.176Z,23.20
2019-04-05T22:32:39.111Z,22.70
2019-04-05T22:35:26.554Z,19.47
2019-04-05T22:38:14.172Z,23.20
2019-04-05T22:41:01.958Z,21.87
2019-04-05T22:43:49.579Z,23.90
2019-04-05T22:46:37.167Z,22.23
2019-04-05T22:49:24.300Z,22.93
2019-04-05T22:52:12.132Z,22.67
2019-04-05T22:55:10.541Z,25.83
2019-04-05T22:57:48.955Z,21.17
2019-04-05T23:00:36.876Z,22.17
2019-04-05T23:03:24.559Z,22.43
2019-04-05T23:06:12.323Z,20.87
2019-04-05T23:09:00.295Z,25.07
2019-04-05T23:11:48.026Z,26.27
2019-04-05T23:14:36.066Z,27.40
2019-04-05T23:17:23.566Z,23.77
2019-04-05T23:20:11.640Z,27.90
2019-04-05T23:22:58.783Z,22.70
2019-04-05T23:25:46.549Z,23.77
2019-04-05T23:28:33.631Z,25.67
2019-04-05T23:31:20.836Z,24.13
2019-04-05T23:34:08.394Z,23.57
2019-04-05T23:36:56.207Z,21.03
2019-04-05T23:39:43.985Z,22.30
2019-04-05T23:42:31.693Z,23.40
2019-04-05T23:45:19.329Z,25.70
2019-04-05T23:48:06.968Z,25.77
2019-04-05T23:50:54.708Z,27.73
2019-04-05T23:53:42.544Z,27.20
2019-04-05T23:56:30.812Z,28.57
2019-04-05T23:59:18.583Z,26.93
